createdAt,value
2023-05-25T00:00:29.089Z,9.40
2023-05-25T00:02:56.248Z,8.50
2023-05-25T00:05:27.840Z,7.32
2023-05-25T00:07:55.500Z,6.40
2023-05-25T00:10:24.103Z,10.80
2023-05-25T00:12:51.811Z,8.73
2023-05-25T00:17:48.860Z,6.78
2023-05-25T00:20:16.312Z,6.00
2023-05-25T00:22:44.970Z,4.93
2023-05-25T00:25:12.341Z,10.27
2023-05-25T00:27:39.226Z,6.55
2023-05-25T00:32:33.819Z,6.75
2023-05-25T00:37:27.371Z,7.22
2023-05-25T00:39:54.169Z,7.97
2023-05-25T00:42:21.449Z,9.85
2023-05-25T00:44:48.674Z,10.25
2023-05-25T00:47:17.364Z,7.45
2023-05-25T00:49:44.387Z,8.40
2023-05-25T00:52:13.119Z,7.85
2023-05-25T00:54:39.942Z,8.90
2023-05-25T00:57:07.922Z,10.02
2023-05-25T00:59:41.443Z,13.07
2023-05-25T01:02:11.972Z,12.20
2023-05-25T01:04:42.345Z,11.43
2023-05-25T01:07:10.841Z,8.55
2023-05-25T01:09:41.007Z,7.65
2023-05-25T01:12:09.290Z,10.80
2023-05-25T01:14:38.458Z,13.65
2023-05-25T01:17:06.619Z,12.80
2023-05-25T01:19:35.884Z,10.75
2023-05-25T01:22:05.276Z,15.40
2023-05-25T01:24:41.294Z,13.00
2023-05-25T01:27:32.505Z,11.75
2023-05-25T01:30:01.261Z,10.07
2023-05-25T01:32:28.892Z,8.70
2023-05-25T01:34:57.871Z,10.23
2023-05-25T01:37:26.423Z,11.63
2023-05-25T01:39:53.272Z,9.95
2023-05-25T01:42:20.405Z,11.52
2023-05-25T01:44:47.329Z,10.82
2023-05-25T01:49:59.999Z,11.07
2023-05-25T01:52:30.942Z,9.30
2023-05-25T01:55:03.048Z,9.63
2023-05-25T01:57:33.402Z,13.55
2023-05-25T02:00:03.124Z,15.60
2023-05-25T02:02:43.769Z,12.45
2023-05-25T02:05:11.548Z,13.68
2023-05-25T02:07:38.934Z,10.18
2023-05-25T02:10:06.548Z,13.00
2023-05-25T02:12:33.769Z,11.80
2023-05-25T02:15:00.621Z,14.20
2023-05-25T02:17:28.082Z,14.90
2023-05-25T02:19:55.060Z,10.73
2023-05-25T02:24:49.404Z,13.55
2023-05-25T02:27:16.276Z,14.00
2023-05-25T02:29:43.761Z,11.30
2023-05-25T02:32:10.577Z,11.43
2023-05-25T02:34:37.452Z,11.35
2023-05-25T02:37:04.406Z,10.48
2023-05-25T02:41:59.772Z,12.48
2023-05-25T02:44:27.153Z,11.07
2023-05-25T02:46:55.229Z,14.75
2023-05-25T02:49:23.287Z,12.18
2023-05-25T02:51:50.432Z,17.70
2023-05-25T02:56:44.713Z,13.82
2023-05-25T02:59:14.271Z,12.13
2023-05-25T03:01:42.038Z,15.73
2023-05-25T03:04:08.859Z,13.02
2023-05-25T03:06:37.977Z,9.88
2023-05-25T03:09:12.434Z,11.27
2023-05-25T03:11:40.338Z,13.65
2023-05-25T03:14:10.853Z,17.13
2023-05-25T03:16:39.055Z,15.65
2023-05-25T03:19:07.403Z,15.68
2023-05-25T03:21:36.203Z,16.65
2023-05-25T03:24:03.166Z,13.48
2023-05-25T03:28:57.863Z,16.08
2023-05-25T03:31:24.856Z,14.68
2023-05-25T03:33:51.977Z,29.92
2023-05-25T03:36:22.308Z,13.57
2023-05-25T03:38:49.736Z,14.07
2023-05-25T03:43:43.324Z,11.10
2023-05-25T03:46:11.783Z,18.90
2023-05-25T03:48:38.997Z,14.77
2023-05-25T03:51:06.491Z,18.70
2023-05-25T03:53:34.013Z,11.70
2023-05-25T03:56:01.068Z,16.98
2023-05-25T03:58:27.879Z,12.15
2023-05-25T04:00:56.145Z,15.45
2023-05-25T04:03:23.259Z,23.88
2023-05-25T04:05:50.245Z,14.90
2023-05-25T04:08:20.324Z,11.63
2023-05-25T04:10:47.172Z,21.42
2023-05-25T04:13:14.412Z,16.40
2023-05-25T04:15:41.329Z,17.33
2023-05-25T04:18:20.754Z,14.30
2023-05-25T04:20:48.712Z,14.90
2023-05-25T04:23:17.483Z,18.17
2023-05-25T04:25:45.540Z,16.23
2023-05-25T04:28:12.641Z,14.40
2023-05-25T04:30:59.730Z,14.25
2023-05-25T04:33:49.834Z,15.98
2023-05-25T04:36:32.718Z,15.38
2023-05-25T04:39:04.483Z,17.58
2023-05-25T04:41:36.193Z,17.00
2023-05-25T04:44:09.692Z,14.48
2023-05-25T04:46:44.672Z,18.05
2023-05-25T04:49:18.948Z,13.98
2023-05-25T04:51:45.895Z,13.55
2023-05-25T04:54:12.772Z,12.60
2023-05-25T04:56:40.345Z,14.27
2023-05-25T04:59:08.535Z,13.20
2023-05-25T05:01:40.762Z,18.77
2023-05-25T05:04:08.945Z,16.58
2023-05-25T05:06:39.149Z,13.48
2023-05-25T05:09:07.135Z,16.35
2023-05-25T05:11:34.026Z,17.35
2023-05-25T05:16:33.711Z,13.02
2023-05-25T05:19:04.627Z,15.57
2023-05-25T05:21:32.468Z,13.32
2023-05-25T05:24:01.085Z,12.38
2023-05-25T05:26:28.738Z,12.45
2023-05-25T05:28:55.993Z,13.32
2023-05-25T05:31:25.367Z,12.38
2023-05-25T05:33:52.589Z,12.80
2023-05-25T05:36:19.477Z,14.90
2023-05-25T05:41:14.338Z,13.30
2023-05-25T05:43:43.818Z,12.68
2023-05-25T05:46:10.934Z,10.98
2023-05-25T05:48:39.825Z,12.32
2023-05-25T05:53:35.302Z,13.07
2023-05-25T05:56:03.208Z,13.38
2023-05-25T05:58:32.271Z,9.68
2023-05-25T06:01:00.020Z,14.73
2023-05-25T06:03:30.117Z,10.15
2023-05-25T06:05:57.022Z,15.73
2023-05-25T06:08:24.700Z,8.85
2023-05-25T06:10:51.949Z,19.17
2023-05-25T06:15:46.231Z,8.87
2023-05-25T06:18:18.045Z,7.90
2023-05-25T06:23:14.000Z,12.32
2023-05-25T06:25:41.290Z,9.18
2023-05-25T06:28:08.138Z,10.30
2023-05-25T06:35:30.228Z,10.27
2023-05-25T06:37:57.488Z,8.77
2023-05-25T06:42:51.308Z,9.63
2023-05-25T06:45:37.573Z,14.90
2023-05-25T06:48:05.227Z,12.20
2023-05-25T06:50:32.322Z,10.10
2023-05-25T06:55:27.352Z,13.02
2023-05-25T06:57:54.125Z,10.75
2023-05-25T07:02:48.389Z,15.43
2023-05-25T07:05:15.606Z,14.00
2023-05-25T07:07:42.458Z,12.15
2023-05-25T07:12:36.185Z,11.10
2023-05-25T07:15:03.028Z,14.70
2023-05-25T07:19:58.337Z,9.52
2023-05-25T07:24:52.562Z,12.48
2023-05-25T07:29:46.639Z,10.23
2023-05-25T07:34:40.096Z,11.90
2023-05-25T07:39:33.589Z,9.45
2023-05-25T07:44:30.023Z,10.90
2023-05-25T07:46:56.901Z,9.80
2023-05-25T07:49:23.721Z,13.77
2023-05-25T07:51:50.771Z,11.73
2023-05-25T07:54:17.582Z,15.60
2023-05-25T07:59:11.221Z,7.97
2023-05-25T08:01:39.046Z,11.63
2023-05-25T08:04:06.249Z,12.07
2023-05-25T08:06:34.244Z,11.60
2023-05-25T08:09:02.991Z,9.15
2023-05-25T08:11:31.183Z,13.02
2023-05-25T08:13:58.012Z,12.35
2023-05-25T08:16:24.861Z,11.65
2023-05-25T08:18:52.508Z,12.25
2023-05-25T08:21:19.354Z,11.45
2023-05-25T08:23:46.320Z,10.63
2023-05-25T08:28:43.066Z,9.60
2023-05-25T08:31:10.054Z,9.57
2023-05-25T08:33:37.909Z,12.25
2023-05-25T08:36:05.417Z,7.88
2023-05-25T08:38:33.139Z,8.15
2023-05-25T08:41:07.151Z,8.88
2023-05-25T08:43:34.572Z,9.93
2023-05-25T08:46:06.764Z,7.82
2023-05-25T08:48:42.250Z,10.30
2023-05-25T08:51:12.708Z,11.65
2023-05-25T08:53:41.251Z,10.07
2023-05-25T08:56:18.409Z,7.10
2023-05-25T08:59:07.632Z,10.32
2023-05-25T09:01:43.296Z,9.60
2023-05-25T09:04:14.027Z,9.05
2023-05-25T09:06:41.152Z,5.88
2023-05-25T09:09:09.502Z,6.45
2023-05-25T09:11:39.643Z,8.55
2023-05-25T09:14:11.414Z,7.50
2023-05-25T09:16:38.637Z,12.45
2023-05-25T09:19:05.763Z,8.18
2023-05-25T09:21:32.603Z,6.28
2023-05-25T09:24:00.573Z,8.15
2023-05-25T09:26:27.961Z,7.65
2023-05-25T09:28:55.357Z,9.77
2023-05-25T09:31:24.695Z,8.02
2023-05-25T09:33:55.432Z,6.22
2023-05-25T09:36:23.325Z,7.20
2023-05-25T09:38:52.563Z,8.93
2023-05-25T09:41:19.986Z,6.68
2023-05-25T09:46:16.186Z,7.90
2023-05-25T09:48:43.579Z,6.20
2023-05-25T09:51:11.859Z,6.55
2023-05-25T09:53:38.710Z,5.57
2023-05-25T09:56:05.936Z,6.80
2023-05-25T09:58:33.040Z,6.13
2023-05-25T10:01:00.885Z,5.65
2023-05-25T10:03:27.902Z,8.30
2023-05-25T10:05:55.024Z,5.15
2023-05-25T10:08:25.703Z,6.78
2023-05-25T10:10:53.964Z,6.55
2023-05-25T10:13:25.000Z,7.35
2023-05-25T10:15:54.765Z,8.32
2023-05-25T10:18:26.825Z,4.57
2023-05-25T10:21:02.774Z,7.38
2023-05-25T10:23:41.961Z,5.22
2023-05-25T10:26:09.913Z,5.32
2023-05-25T10:28:38.036Z,8.10
2023-05-25T10:31:05.799Z,7.05
2023-05-25T10:33:33.721Z,5.35
2023-05-25T10:38:36.613Z,6.40
2023-05-25T10:41:05.886Z,5.90
2023-05-25T10:43:32.818Z,4.75
2023-05-25T10:45:59.770Z,6.47
2023-05-25T10:48:37.413Z,4.47
2023-05-25T10:51:04.589Z,8.10
2023-05-25T10:53:31.471Z,5.35
2023-05-25T10:56:06.354Z,7.45
2023-05-25T10:58:34.086Z,7.32
2023-05-25T11:01:06.939Z,6.75
2023-05-25T11:04:17.355Z,5.20
2023-05-25T11:06:47.171Z,4.82
2023-05-25T11:09:27.475Z,6.32
2023-05-25T11:11:56.081Z,5.28
2023-05-25T11:14:23.744Z,4.80
2023-05-25T11:17:14.423Z,6.57
2023-05-25T11:19:52.317Z,5.10
2023-05-25T11:22:23.661Z,4.90
2023-05-25T11:24:52.605Z,5.18
2023-05-25T11:27:24.032Z,6.57
2023-05-25T11:29:52.812Z,6.75
2023-05-25T11:32:21.099Z,4.97
2023-05-25T11:34:48.408Z,4.30
2023-05-25T11:37:24.740Z,5.28
2023-05-25T11:39:52.428Z,4.82
2023-05-25T11:42:24.724Z,4.78
2023-05-25T11:44:51.966Z,5.57
2023-05-25T11:47:23.080Z,6.15
2023-05-25T11:49:50.247Z,8.82
2023-05-25T11:52:19.063Z,7.03
2023-05-25T11:54:46.575Z,5.38
2023-05-25T11:57:22.559Z,5.30
2023-05-25T11:59:53.696Z,7.35
2023-05-25T12:02:21.592Z,5.63
2023-05-25T12:05:01.322Z,5.32
2023-05-25T12:07:30.131Z,6.40
2023-05-25T12:10:07.080Z,5.63
2023-05-25T12:12:44.670Z,4.95
2023-05-25T12:15:13.903Z,7.97
2023-05-25T12:17:42.977Z,9.50
2023-05-25T12:20:15.176Z,5.63
2023-05-25T12:22:43.130Z,6.50
2023-05-25T12:25:11.763Z,6.50
2023-05-25T12:27:40.124Z,7.20
2023-05-25T12:30:09.369Z,7.78
2023-05-25T12:32:54.582Z,7.22
2023-05-25T12:35:21.572Z,7.20
2023-05-25T12:37:48.468Z,8.23
2023-05-25T12:40:24.505Z,6.45
2023-05-25T12:42:57.924Z,4.25
2023-05-25T12:45:24.909Z,4.97
2023-05-25T12:47:52.365Z,5.50
2023-05-25T12:50:19.876Z,7.07
2023-05-25T12:52:47.735Z,9.70
2023-05-25T12:55:27.849Z,6.35
2023-05-25T12:58:08.069Z,5.85
2023-05-25T13:00:36.459Z,6.97
2023-05-25T13:03:04.940Z,4.47
2023-05-25T13:05:34.305Z,8.13
2023-05-25T13:08:02.935Z,6.22
2023-05-25T13:10:32.804Z,7.78
2023-05-25T13:13:00.779Z,6.50
2023-05-25T13:15:28.482Z,6.93
2023-05-25T13:17:58.155Z,5.68
2023-05-25T13:20:27.310Z,6.68
2023-05-25T13:22:57.754Z,7.18
2023-05-25T13:25:27.449Z,5.72
2023-05-25T13:27:55.065Z,5.57
2023-05-25T13:30:22.415Z,6.25
2023-05-25T13:32:51.389Z,5.22
2023-05-25T13:35:36.956Z,7.55
2023-05-25T13:38:03.974Z,5.57
2023-05-25T13:40:30.749Z,5.38
2023-05-25T13:42:57.543Z,6.43
2023-05-25T13:45:24.328Z,5.70
2023-05-25T13:47:51.486Z,4.80
2023-05-25T13:50:18.646Z,5.57
2023-05-25T13:52:45.475Z,5.10
2023-05-25T13:55:12.324Z,8.57
2023-05-25T13:57:39.121Z,5.22
2023-05-25T14:00:07.518Z,6.55
2023-05-25T14:02:35.318Z,7.32
2023-05-25T14:05:02.480Z,6.60
2023-05-25T14:07:29.238Z,6.78
2023-05-25T14:09:57.508Z,6.57
2023-05-25T14:12:25.004Z,7.13
2023-05-25T14:14:51.776Z,5.93
2023-05-25T14:17:18.723Z,6.20
2023-05-25T14:19:45.685Z,7.95
2023-05-25T14:22:14.427Z,6.93
2023-05-25T14:24:41.897Z,7.90
2023-05-25T14:27:08.899Z,8.88
2023-05-25T14:29:35.917Z,8.05
2023-05-25T14:32:02.875Z,4.50
2023-05-25T14:34:29.874Z,6.45
2023-05-25T14:36:56.968Z,7.18
2023-05-25T14:39:23.822Z,6.70
2023-05-25T14:41:50.957Z,6.75
2023-05-25T14:44:17.757Z,8.55
2023-05-25T14:46:44.684Z,5.90
2023-05-25T14:49:11.716Z,7.63
2023-05-25T14:51:38.699Z,6.22
2023-05-25T14:54:07.849Z,7.35
2023-05-25T14:56:35.145Z,6.78
2023-05-25T14:59:02.129Z,7.85
2023-05-25T15:01:29.372Z,7.63
2023-05-25T15:03:57.013Z,6.78
2023-05-25T15:06:24.000Z,5.88
2023-05-25T15:08:51.030Z,8.05
2023-05-25T15:11:18.226Z,5.40
2023-05-25T15:13:45.677Z,7.70
2023-05-25T15:16:16.820Z,7.15
2023-05-25T15:18:44.235Z,6.47
2023-05-25T15:21:11.413Z,7.00
2023-05-25T15:23:38.948Z,7.65
2023-05-25T15:26:07.959Z,8.15
2023-05-25T15:28:35.046Z,6.90
2023-05-25T15:31:03.293Z,7.18
2023-05-25T15:33:47.135Z,6.25
2023-05-25T15:36:18.201Z,8.23
2023-05-25T15:38:48.807Z,6.13
2023-05-25T15:41:17.203Z,6.68
2023-05-25T15:44:01.471Z,7.45
2023-05-25T15:46:28.862Z,7.20
2023-05-25T15:48:56.121Z,11.85
2023-05-25T15:51:23.007Z,8.65
2023-05-25T15:53:49.852Z,7.28
2023-05-25T15:56:16.733Z,6.70
2023-05-25T15:58:46.969Z,6.55
2023-05-25T16:01:14.069Z,6.20
2023-05-25T16:03:42.913Z,10.13
2023-05-25T16:06:10.313Z,9.27
2023-05-25T16:08:37.171Z,7.20
2023-05-25T16:11:04.011Z,6.35
2023-05-25T16:13:30.790Z,6.57
2023-05-25T16:15:57.691Z,7.20
2023-05-25T16:18:24.684Z,6.00
2023-05-25T16:20:55.924Z,9.50
2023-05-25T16:23:23.711Z,8.43
2023-05-25T16:25:50.835Z,8.38
2023-05-25T16:28:17.646Z,8.68
2023-05-25T16:30:44.461Z,8.93
2023-05-25T16:33:11.393Z,8.23
2023-05-25T16:35:38.182Z,7.93
2023-05-25T16:38:05.079Z,8.73
2023-05-25T16:40:33.371Z,7.70
2023-05-25T16:43:00.327Z,8.25
2023-05-25T16:45:27.238Z,11.02
2023-05-25T16:47:54.053Z,9.00
2023-05-25T16:50:21.465Z,8.40
2023-05-25T16:52:48.343Z,10.80
2023-05-25T16:55:16.072Z,9.77
2023-05-25T16:57:42.919Z,10.25
2023-05-25T17:00:10.384Z,6.90
2023-05-25T17:02:37.322Z,8.27
2023-05-25T17:05:06.507Z,9.45
2023-05-25T17:07:33.769Z,11.05
2023-05-25T17:10:00.733Z,8.80
2023-05-25T17:12:27.802Z,8.13
2023-05-25T17:14:54.576Z,7.25
2023-05-25T17:17:25.481Z,8.88
2023-05-25T17:19:54.144Z,8.65
2023-05-25T17:22:21.000Z,7.57
2023-05-25T17:24:47.788Z,8.25
2023-05-25T17:27:14.538Z,10.05
2023-05-25T17:29:42.001Z,8.05
2023-05-25T17:32:08.831Z,6.47
2023-05-25T17:34:35.873Z,8.88
2023-05-25T17:37:02.858Z,9.13
2023-05-25T17:39:29.632Z,8.27
2023-05-25T17:41:56.428Z,8.80
2023-05-25T17:44:23.321Z,6.97
2023-05-25T17:46:50.091Z,8.90
2023-05-25T17:49:16.895Z,8.80
2023-05-25T17:51:43.656Z,7.00
2023-05-25T17:54:15.269Z,6.80
2023-05-25T17:56:42.244Z,8.30
2023-05-25T17:59:09.664Z,7.10
2023-05-25T18:01:36.625Z,8.63
2023-05-25T18:04:03.996Z,7.20
2023-05-25T18:06:30.923Z,7.55
2023-05-25T18:08:57.774Z,9.23
2023-05-25T18:11:24.596Z,9.40
2023-05-25T18:13:51.446Z,8.35
2023-05-25T18:16:18.430Z,7.07
2023-05-25T18:18:45.646Z,7.38
2023-05-25T18:21:12.705Z,7.57
2023-05-25T18:23:39.503Z,10.50
2023-05-25T18:26:06.363Z,6.18
2023-05-25T18:28:33.283Z,7.55
2023-05-25T18:31:00.275Z,6.47
2023-05-25T18:33:27.230Z,8.45
2023-05-25T18:35:54.012Z,8.23
2023-05-25T18:38:20.813Z,8.55
2023-05-25T18:40:47.618Z,8.82
2023-05-25T18:43:14.451Z,7.97
2023-05-25T18:45:41.255Z,9.18
2023-05-25T18:48:08.139Z,10.65
2023-05-25T18:50:35.928Z,7.43
2023-05-25T18:53:03.132Z,7.72
2023-05-25T18:55:30.011Z,7.63
2023-05-25T18:57:57.358Z,7.53
2023-05-25T19:00:24.205Z,11.27
2023-05-25T19:02:51.051Z,8.68
2023-05-25T19:05:19.829Z,9.00
2023-05-25T19:07:55.339Z,8.63
2023-05-25T19:10:26.391Z,10.13
2023-05-25T19:12:53.184Z,6.57
2023-05-25T19:15:20.136Z,9.07
2023-05-25T19:17:47.216Z,8.85
2023-05-25T19:20:14.510Z,7.10
2023-05-25T19:22:41.791Z,9.48
2023-05-25T19:25:08.780Z,9.10
2023-05-25T19:27:35.694Z,11.43
2023-05-25T19:30:02.538Z,9.68
2023-05-25T19:32:29.485Z,7.32
2023-05-25T19:34:56.351Z,8.85
2023-05-25T19:37:23.271Z,9.23
2023-05-25T19:39:50.130Z,11.55
2023-05-25T19:42:16.977Z,10.48
2023-05-25T19:44:45.379Z,10.00
2023-05-25T19:47:12.240Z,6.88
2023-05-25T19:49:39.093Z,8.88
2023-05-25T19:52:06.067Z,7.72
2023-05-25T19:54:32.946Z,7.47
2023-05-25T19:57:00.204Z,7.30
2023-05-25T19:59:28.902Z,9.10
2023-05-25T20:01:56.687Z,9.98
2023-05-25T20:04:23.698Z,9.07
2023-05-25T20:06:52.522Z,8.10
2023-05-25T20:09:19.626Z,8.55
2023-05-25T20:11:47.204Z,8.73
2023-05-25T20:14:14.001Z,7.80
2023-05-25T20:16:41.696Z,9.18
2023-05-25T20:19:10.955Z,8.93
2023-05-25T20:21:37.906Z,9.93
2023-05-25T20:24:04.915Z,7.35
2023-05-25T20:26:32.020Z,10.18
2023-05-25T20:28:58.857Z,8.80
2023-05-25T20:33:52.515Z,8.10
2023-05-25T20:38:47.431Z,10.23
2023-05-25T20:41:14.265Z,7.97
2023-05-25T20:43:41.377Z,7.07
2023-05-25T20:46:10.110Z,6.55
2023-05-25T20:48:38.797Z,7.32
2023-05-25T20:51:05.889Z,8.25
2023-05-25T20:53:32.676Z,6.80
2023-05-25T20:58:28.770Z,10.50
2023-05-25T21:03:22.394Z,7.22
2023-05-25T21:05:49.341Z,10.93
2023-05-25T21:08:16.273Z,8.30
2023-05-25T21:10:43.126Z,8.88
2023-05-25T21:15:36.758Z,10.20
2023-05-25T21:18:05.490Z,12.68
2023-05-25T21:20:32.909Z,8.15
2023-05-25T21:23:00.657Z,9.85
2023-05-25T21:25:27.533Z,8.35
2023-05-25T21:27:56.840Z,7.93
2023-05-25T21:30:24.340Z,9.95
2023-05-25T21:32:51.344Z,9.05
2023-05-25T21:35:18.296Z,9.98
2023-05-25T21:37:45.509Z,9.73
2023-05-25T21:40:12.770Z,9.35
2023-05-25T21:42:39.582Z,12.52
2023-05-25T21:47:33.329Z,7.53
2023-05-25T21:52:27.113Z,11.63
2023-05-25T21:57:20.683Z,9.73
2023-05-25T22:02:14.234Z,9.60
2023-05-25T22:07:07.725Z,10.68
2023-05-25T22:09:34.523Z,13.00
2023-05-25T22:14:29.065Z,12.15
2023-05-25T22:19:22.842Z,14.25
2023-05-25T22:24:16.371Z,11.38
2023-05-25T22:29:11.840Z,13.68
2023-05-25T22:31:38.839Z,8.77
2023-05-25T22:34:05.863Z,12.25
2023-05-25T22:38:59.538Z,11.15
2023-05-25T22:43:53.309Z,12.18
2023-05-25T22:48:47.667Z,12.77
2023-05-25T22:53:41.541Z,10.88
2023-05-25T22:56:08.416Z,9.45
2023-05-25T23:01:02.061Z,11.77
2023-05-25T23:05:57.116Z,16.65
2023-05-25T23:08:23.956Z,14.20
2023-05-25T23:13:19.146Z,14.82
2023-05-25T23:15:47.419Z,10.20
2023-05-25T23:18:14.363Z,15.30
2023-05-25T23:23:08.936Z,13.38
2023-05-25T23:28:03.176Z,11.23
2023-05-25T23:30:30.059Z,12.82
2023-05-25T23:32:57.010Z,10.98
2023-05-25T23:37:51.958Z,13.55
2023-05-25T23:40:19.007Z,12.45
2023-05-25T23:42:45.979Z,11.27
2023-05-25T23:45:13.757Z,13.57
2023-05-25T23:47:40.952Z,9.32
2023-05-25T23:50:08.144Z,12.23
2023-05-25T23:52:35.277Z,14.05
2023-05-25T23:55:02.425Z,10.50
2023-05-25T23:57:29.449Z,14.27
2023-05-25T23:59:56.318Z,12.70
